Brandon Dempsey

Chief Scout - Orlando City
20 Feb 2028
Sunday
Process

Personality

Adaptability (18) Ambition (13) Controversy (5) Loyalty (17) Pressure (15) Professionalism (17) Sportsmanship (1) Temperament (15)

Profile

Coaching Style Democratic
License National B
Determination 12
Man Management 7
Motivating 7
Discipline 7
Job Satisfaction
100%
Fatigue
0%
Role Chief Scout
Wage 80.5K p/w
Contract 14.03.2029

Performance

Behaviour Good
Training Effectiveness
48%
Player Development
60%
Injury Prevention
50%
Tactical Implementation
40%

Recent Events

Recommended a transfer target now
Recommended a transfer target now
Recommended a transfer target now
Recommended a transfer target now
Presented a dossier to the board now
Presented a dossier to the board now
Presented a dossier to the board now
Presented a dossier to the board now

Currently Monitoring

206
Player Club Status Ability Confidence Watched Last Observed Latest Vote
Nicolás Fernández Mercau Independiente Negotiating 134 / 134 90% 1 14.02.2028 Approve
Bitello Sporting CP Negotiating 135 / 135 68% 1 14.02.2028 Approve
Tadeo Allende Inter Miami CF Negotiating 124 / 135 83% 1 14.02.2028 Approve
Owen Foye Swindon Town Active 81 / 86 40% 1 11.02.2028 -
Jorthy Mokio ADO Den Haag Active 131 / 131 40% 1 11.02.2028 -
Kauã Moraes Cruzeiro Active 123 / 137 40% 1 11.02.2028 -
Tyson Pearce St. Louis CITY SC Active 97 / 100 40% 1 09.02.2028 -
Jayden Joseph Bradford City Active 93 / 105 40% 1 09.02.2028 -
Trey Nyoni Rotherham United Active 136 / 136 40% 1 09.02.2028 -
Ronnie Harvey Bromley Active 88 / 97 40% 1 08.02.2028 -
Esquerdinha Shrewsbury Town Active 120 / 124 40% 1 08.02.2028 -
Dmitry Pestryakov Dinamo Moscow Active 112 / 137 40% 1 07.02.2028 -
Martim Cunha Porto Active 106 / 121 40% 1 07.02.2028 -
Pablo Lúcio Bristol City Active 113 / 118 40% 1 07.02.2028 -
Mandla Erasmus SuperSport United Active 121 / 140 40% 3 12.01.2028 -
Oliver Skipp Leicester City Active 140 / 139 40% 2 12.01.2028 -
Pascal Struijk Norwich City Active 150 / 146 40% 1 12.01.2028 -
Brooke Norton-Cuffy Inter Miami CF Active 143 / 136 40% 4 11.01.2028 -
Cole Bassett Portland Timbers Active 120 / 118 40% 3 11.01.2028 -
Derry Murkin Derby County Active 133 / 141 40% 3 10.01.2028 -
Nicolás Domínguez Huddersfield Town Active 145 / 158 40% 1 10.01.2028 -
Noah Sadiki Sunderland Active 150 / 141 40% 1 10.01.2028 -
Bobby Thomas Coventry City Active 137 / 129 40% 1 09.01.2028 -
Ethan Ampadu Leeds United Active 150 / 157 40% 2 08.01.2028 -
Marco Palestra Oxford United Active 140 / 154 40% 1 08.01.2028 -
Marcelo Saracchi Houston Dynamo Active 129 / 120 40% 5 07.01.2028 -
Amar Dedić Watford Active 145 / 141 40% 2 07.01.2028 -
Jayden Bogle Leeds United Active 142 / 132 40% 1 06.01.2028 -
Ryan Sessegnon Fulham Active 147 / 158 40% 3 05.01.2028 -
Florentino Luís Ipswich Town Active 149 / 145 40% 1 05.01.2028 -
Conor Bradley Bristol City Active 157 / 149 40% 1 05.01.2028 -
André Wolverhampton Active 151 / 155 40% 2 04.01.2028 -
Roméo Lavia Blackburn Rovers Active 154 / 144 40% 1 04.01.2028 -
Alfie Doughty Millwall Active 131 / 132 40% 1 04.01.2028 -
Azor Matusiwa Ipswich Town Active 139 / 145 40% 1 02.01.2028 -
Adam Wharton Crystal Palace Active 158 / 170 40% 3 01.01.2028 -
Anton Stach Leeds United Active 151 / 160 40% 2 01.01.2028 -
Manuel Ugarte Portsmouth Active 153 / 154 40% 1 01.01.2028 -
Thomas Ortega Quilmes Active 114 / 110 40% 3 31.12.2027 -
Gonzalo Mottes Chacarita Juniors Active 119 / 128 40% 4 22.12.2027 -
Nicolás Romero Minnesota United FC Active 135 / 129 40% 1 22.12.2027 -
Matheus Pereira Toronto FC Active 122 / 115 40% 5 21.12.2027 -
Dennis Cirkin Queens Park Rangers Active 135 / 141 40% 1 21.12.2027 -
Sergio Reguilón Inter Miami CF Active 132 / 132 40% 9 19.12.2027 -
Nordi Mukiele Sunderland Active 146 / 159 40% 1 19.12.2027 -
Emanuel Coronel Rosario Central Active 131 / 111 40% 2 17.12.2027 -
Tomás Jacob Atlanta United FC Active 121 / 111 40% 3 16.12.2027 -
Shaq Moore FC Dallas Active 128 / 124 40% 3 16.12.2027 -
Emiliano Álvarez Progreso Active 128 / 120 40% 5 15.12.2027 -
Ralph Orquin Seattle Sounders Active 129 / 138 40% 5 13.12.2027 -
Cristian Graciano Junior Active 120 / 119 40% 1 13.12.2027 -
Nicolás Paz San Martín SJ Active 122 / 130 40% 3 12.12.2027 -
Damián Adín San Miguel Active 114 / 104 40% 1 11.12.2027 -
Alejandro Molina Tristán Suárez Active 111 / 112 40% 2 09.12.2027 -
Sergi Palencia Los Angeles Football Club Active 126 / 128 40% 1 09.12.2027 -
Sasha Marcich Lanús Active 131 / 133 40% 3 08.12.2027 -
Mateo Mendoza Godoy Cruz Active 123 / 121 40% 3 08.12.2027 -
Brian Calderara Chacarita Juniors Active 115 / 131 40% 6 07.12.2027 -
Malte Amundsen Columbus Crew Active 125 / 121 40% 2 07.12.2027 -
Kobbie Mainoo Leicester City Active 155 / 162 40% 1 06.12.2027 -
Neco Williams Nottingham Forest Active 148 / 155 40% 1 05.12.2027 -
Felipe Peña Biafore Lanús Active 129 / 135 40% 4 04.12.2027 -
Williams Manyama SuperSport United Active 116 / 120 40% 2 04.12.2027 -
Juan Infante Atlético Tucumán Active 119 / 129 40% 2 02.12.2027 -
Martín Garay Tigre Active 118 / 121 40% 3 01.12.2027 -
Mauricio Amaro Atlanta United FC Active 130 / 132 40% 5 29.11.2027 -
Gabriel Gudmundsson Leeds United Active 145 / 139 40% 1 26.11.2027 -
Nicolás Tripichio San Lorenzo Active 121 / 129 40% 3 23.11.2027 -
César Ibáñez Huracán Active 127 / 107 40% 1 23.11.2027 -
Julián Cosi Madryn Active 120 / 121 40% 3 20.11.2027 -
Eddie Segura Los Angeles Football Club Active 121 / 112 40% 1 18.11.2027 -
Walter Juárez Güemes Active 109 / 97 40% 3 16.11.2027 -
Martín García Atlanta Active 107 / 116 40% 5 16.11.2027 -
Philippe Ndinga Philadelphia Union Active 119 / 115 40% 2 13.11.2027 -
Agustín Pereira Albion Active 111 / 103 40% 1 13.11.2027 -
Fernando Bersano Madryn Active 121 / 131 40% 2 07.11.2027 -
Facundo Mura Inter Miami CF Active 127 / 130 40% 4 06.11.2027 -
Loïc Williams Colorado Rapids Active 125 / 130 40% 1 01.11.2027 -
Kai Wagner Philadelphia Union Active 122 / 120 40% 2 31.10.2027 -
Reggie Cannon Colorado Rapids Active 117 / 109 40% 3 25.10.2027 -
Santiago López García Banfield Active 120 / 130 40% 3 23.10.2027 -
Lukas Engel Real Salt Lake Active 130 / 126 40% 3 21.10.2027 -
Lucas Halter Houston Dynamo Active 131 / 120 40% 1 19.10.2027 -
Samuel Lucero Defensa y Justicia Active 115 / 137 40% 1 19.10.2027 -
Facundo Ardiles Estudiantes Active 114 / 113 40% 5 18.10.2027 -
Facundo Nadalín San Martín SJ Active 118 / 111 40% 2 16.10.2027 -
Samuel Gidi FC Cincinnati Active 119 / 111 40% 3 15.10.2027 -
Steven Alzate Atlanta United FC Active 124 / 127 40% 1 12.10.2027 -
Bryan Ramírez FC Cincinnati Active 133 / 125 40% 3 11.10.2027 -
Lucas Carrizo Newell's Old Boys Active 131 / 130 40% 1 10.10.2027 -
Jake Davis Sporting Kansas City Active 124 / 116 40% 1 09.10.2027 -
Thijmen Goppel Bali United Active 112 / 127 40% 1 29.09.2027 -
Tomas Totland St. Louis CITY SC Active 118 / 120 40% 1 28.09.2027 -
Lucas Agazzi Defensor Sporting Active 119 / 112 40% 1 28.09.2027 -
DeJuan Jones San Jose Earthquakes Active 127 / 128 40% 2 26.09.2027 -
Juan Luis Alfaro Banfield Active 114 / 107 40% 2 26.09.2027 -
Matías Machado Racing Active 107 / 113 40% 1 25.09.2027 -
Delvin Alfonzo Deportivo Tachira Active 124 / 115 40% 1 24.09.2027 -
Alhassan Yusuf New England Revolution Active 124 / 121 40% 1 24.09.2027 -
Stijn Spierings Real Salt Lake Active 126 / 133 40% 1 24.09.2027 -
Aaron Herrera Charlotte Football Club Active 133 / 123 40% 2 21.09.2027 -
Joseph Rosales Austin FC Active 122 / 122 40% 1 21.09.2027 -
Maximiliano Luayza Koot Tristán Suárez Active 115 / 118 40% 1 20.09.2027 -
Japhet Sery Larsen Philadelphia Union Active 123 / 128 40% 1 20.09.2027 -
Igor Jesus Los Angeles Football Club Active 117 / 129 40% 1 18.09.2027 -
Miguel Navarro Colorado Rapids Active 126 / 125 40% 1 18.09.2027 -
Andrew Gutman Chicago Fire Active 120 / 110 40% 2 14.09.2027 -
Pablo Siles Montevideo City Torque Active 120 / 135 40% 1 14.09.2027 -
Federico Barrandeguy Juventud Active 118 / 94 40% 1 11.09.2027 -
Axel Frugone Defensor Sporting Active 110 / 106 40% 1 10.09.2027 -
Gonzalo Abrego Godoy Cruz Active 129 / 112 40% 1 09.09.2027 -
Juan Camilo Pérez Carabobo Active 123 / 120 40% 1 06.09.2027 -
Tom Cannon Sheffield United Active 135 / 140 40% 2 19.07.2027 -
Tommy Conway Middlesbrough Active 131 / 123 40% 1 19.07.2027 -
Pedro de la Vega FC Dallas Lost 133 / 134 67% 1 08.07.2027 Approve
Dávid Strelec Middlesbrough Active 139 / 144 40% 1 07.07.2027 -
Patson Daka Leicester City Active 127 / 138 40% 1 07.07.2027 -
Josh King Chelsea Active 135 / 156 40% 1 01.03.2027 -
Joel McGregor Swindon Town Active 94 / 107 40% 1 01.03.2027 -
Riley Owen Trento Active 103 / 97 40% 1 01.03.2027 -
Giacomo Raspadori Atalanta Active 145 / 156 40% 4 14.02.2027 -
Facundo Torres LOSC Lille Active 134 / 134 67% 1 14.02.2027 Approve
Leandro Andrade Olympiacos Negotiating 130 / 130 66% 1 14.02.2027 Approve
Pablo Solari Galatasaray Negotiating 128 / 128 68% 1 14.02.2027 Approve
Themba Ngcobo SuperSport United Active 120 / 115 40% 1 14.02.2027 -
Aune Heggebø West Bromwich Albion Active 130 / 124 40% 1 14.02.2027 -
Dango Ouattara Brentford Active 144 / 140 40% 3 13.02.2027 Monitor
Matt O'Riley Brighton Active 144 / 142 40% 1 11.02.2027 -
Juanlu Bournemouth Active 150 / 151 40% 1 11.02.2027 -
Wilson Isidor Sunderland Active 135 / 139 40% 3 10.02.2027 -
Shea Charles Southampton Active 135 / 124 40% 1 10.02.2027 -
Finn Azaz Southampton Active 131 / 116 40% 3 09.02.2027 -
Ronald Swansea City Active 127 / 114 40% 2 07.02.2027 -
Derensili Sanches Fernandes Huddersfield Town Active 128 / 127 40% 2 06.02.2027 -
Malick Fofana Sunderland Active 139 / 149 40% 1 06.02.2027 -
Andre Brooks Sheffield United Active 131 / 132 40% 1 05.02.2027 -
Mikkel Damsgaard Brentford Active 146 / 144 40% 1 04.02.2027 -
Gonzalo Fulham Active 140 / 154 40% 1 04.02.2027 -
Abdul Fatawu Leicester City Active 134 / 138 40% 1 04.02.2027 -
Tyrese Campbell Sheffield United Active 129 / 120 40% 1 03.02.2027 -
Tariq Lamptey Queens Park Rangers Active 135 / 144 40% 1 03.02.2027 -
Morgan Whittaker Middlesbrough Active 133 / 139 40% 2 01.02.2027 -
Amine Adli Bournemouth Active 143 / 137 40% 1 31.01.2027 -
Kasey McAteer Ipswich Town Active 128 / 127 40% 1 30.01.2027 -
Ali Ahmed Norwich City Active 123 / 131 40% 2 29.01.2027 -
Tyler Adams Bournemouth Active 149 / 142 40% 2 28.01.2027 -
Ilyas Ansah Hull City Active 129 / 139 40% 1 28.01.2027 -
Harry Clarke Preston Active 125 / 120 40% 1 27.01.2027 -
Isaac Price West Bromwich Albion Active 127 / 131 40% 1 27.01.2027 -
Isaiah Jones Luton Town Active 127 / 113 40% 1 26.01.2027 -
Max Bird Birmingham Active 129 / 128 40% 1 25.01.2027 -
Dara O'Shea Ipswich Town Active 136 / 142 40% 1 25.01.2027 -
Nicolas Madsen Queens Park Rangers Active 129 / 136 40% 1 25.01.2027 -
Georginio Rutter Brighton Active 144 / 160 40% 1 23.01.2027 -
Yehor Yarmoliuk Brentford Active 148 / 157 40% 1 22.01.2027 -
Juan Mosquera Sheffield Wednesday Active 124 / 132 40% 1 22.01.2027 -
Ruben van Bommel Ferencvaros Active 136 / 144 40% 4 20.01.2027 -
Cher Ndour Fiorentina Active 132 / 129 40% 2 19.01.2027 -
Jordan Zemura Udinese Active 132 / 129 40% 1 16.01.2027 -
Christian Krasnodar Active 138 / 137 40% 8 15.01.2027 -
Marquinhos Spartak Moscow Active 130 / 117 40% 7 13.01.2027 -
Petar Stanić Ludogorets Active 130 / 127 40% 6 13.01.2027 -
Nicolò Cambiaghi Bologna Active 144 / 135 40% 1 13.01.2027 -
Marcelo Allende Mamelodi Sundowns Active 137 / 146 40% 9 12.01.2027 -
Mattéo Tramoni Pisa Active 132 / 135 40% 1 11.01.2027 -
Marlon Gomes Shakhtar Active 130 / 147 40% 4 09.01.2027 -
Oumar Solet Udinese Active 144 / 137 40% 1 09.01.2027 -
Lewis Ferguson Bologna Active 145 / 135 40% 1 04.01.2027 -
Lucas Da Cunha Como Active 140 / 134 40% 1 02.01.2027 -
Zakaria Aboukhlal Torino Active 134 / 137 40% 1 02.01.2027 -
Femi Seriki Sheffield United Active 130 / 118 40% 3 01.01.2027 -
Reda Khadra Qarabag Active 128 / 148 40% 6 28.12.2026 -
Alex Scott Bournemouth Active 146 / 140 40% 1 27.12.2026 -
Hélio Varela Maccabi Tel Aviv Active 127 / 106 40% 3 23.12.2026 -
Luciano Gondou CSKA Moscow Active 127 / 140 40% 3 21.12.2026 -
Endrick Real Madrid Active 143 / 156 40% 2 21.12.2026 -
Bradley Tau SuperSport United Active 126 / 129 40% 2 20.12.2026 -
Nazar Voloshyn Dynamo Kyiv Active 122 / 116 40% 1 19.12.2026 -
Esequiel Barco Spartak Moscow Active 140 / 140 40% 2 17.12.2026 -
Conrad Wallem Austria Wien Active 128 / 119 40% 6 15.12.2026 -
Ammar Ramadan DAC Dunajska Streda Active 126 / 139 40% 1 15.12.2026 -
João Gomes Aston Villa Active 143 / 139 40% 2 12.12.2026 -
Serge-Philippe Raux-Yao Rapid Wien Active 125 / 136 40% 1 12.12.2026 -
Eric Meza Estudiantes Active 121 / 105 40% 1 12.12.2026 -
Danil Glebov Dinamo Moscow Active 130 / 112 40% 1 12.12.2026 -
Santiago Montiel Independiente Active 133 / 114 40% 1 07.12.2026 -
Tiago Palacios Estudiantes Active 132 / 125 40% 1 04.12.2026 -
Maxim De Cuyper Brighton Active 134 / 147 40% 6 29.11.2026 -
Aarón Molinas Defensa y Justicia Active 127 / 126 40% 1 25.11.2026 -
Griffin Yow New England Revolution Active 121 / 137 40% 3 20.11.2026 -
Romano Schmid Frosinone Active 146 / 152 40% 1 15.11.2026 -
Daniel Karlsbakk Sarpsborg 08 Active 120 / 117 40% 1 05.11.2026 -
Elias Achouri San Diego Football Club Active 138 / 128 40% 4 26.10.2026 -
Antony Portland Timbers Active 132 / 142 40% 3 19.10.2026 -
Santiago Rodríguez Columbus Crew Active 132 / 137 40% 2 12.10.2026 -
Jesus Ferreira Seattle Sounders Active 131 / 132 40% 2 09.10.2026 -
Joaquín Pereyra Minnesota United FC Active 126 / 123 40% 1 09.10.2026 -
Tomás Chancalay Minnesota United FC Active 128 / 114 40% 3 03.10.2026 -
Diego Luna Real Salt Lake Active 121 / 132 40% 1 29.09.2026 -
Simphiwe Selepe Orlando Pirates Active 105 / 102 40% 1 16.09.2026 -
Daniel Dennis Ikorodu City Active 92 / 110 40% 1 16.09.2026 -
Ronwen Phiri Platinum Stars Active 94 / 121 40% 2 10.09.2026 -
Rhys Chadwick Leyton Orient Active 98 / 104 40% 1 10.09.2026 -
Leonardo Campana New England Revolution Active 131 / 126 40% 1 04.08.2026 -
Ifeanyi Emmanuel Niger Tornadoes Active 90 / 113 40% 1 03.08.2026 -
Cemran Dansin Orlando Pirates Active 104 / 96 40% 1 03.08.2026 -